sensor_id;sensor_type;location;lat;lon;timestamp;P1;durP1;ratioP1;P2;durP2;ratioP2
22152;SDS011;11242;50.536;12.688;2022-09-03T00:01:07;5.60;;;5.10;;
22152;SDS011;11242;50.536;12.688;2022-09-03T00:03:42;6.97;;;5.25;;
22152;SDS011;11242;50.536;12.688;2022-09-03T00:06:12;7.05;;;5.20;;
22152;SDS011;11242;50.536;12.688;2022-09-03T00:08:59;7.95;;;5.88;;
22152;SDS011;11242;50.536;12.688;2022-09-03T00:11:50;8.85;;;5.43;;
22152;SDS011;11242;50.536;12.688;2022-09-03T00:14:27;8.45;;;5.35;;
22152;SDS011;11242;50.536;12.688;2022-09-03T00:17:14;6.38;;;5.38;;
22152;SDS011;11242;50.536;12.688;2022-09-03T00:19:58;6.03;;;5.00;;
22152;SDS011;11242;50.536;12.688;2022-09-03T00:22:29;7.78;;;5.50;;
22152;SDS011;11242;50.536;12.688;2022-09-03T00:25:04;7.75;;;5.53;;
22152;SDS011;11242;50.536;12.688;2022-09-03T00:27:36;7.22;;;5.10;;
22152;SDS011;11242;50.536;12.688;2022-09-03T00:30:07;6.15;;;4.90;;
22152;SDS011;11242;50.536;12.688;2022-09-03T00:32:38;6.25;;;5.65;;
22152;SDS011;11242;50.536;12.688;2022-09-03T00:35:26;7.00;;;5.38;;
22152;SDS011;11242;50.536;12.688;2022-09-03T00:37:56;7.53;;;5.60;;
22152;SDS011;11242;50.536;12.688;2022-09-03T00:46:14;6.63;;;5.30;;
22152;SDS011;11242;50.536;12.688;2022-09-03T00:48:52;6.00;;;5.40;;
22152;SDS011;11242;50.536;12.688;2022-09-03T00:51:48;6.85;;;5.60;;
22152;SDS011;11242;50.536;12.688;2022-09-03T00:54:32;8.38;;;6.20;;
22152;SDS011;11242;50.536;12.688;2022-09-03T00:57:16;7.75;;;6.00;;
22152;SDS011;11242;50.536;12.688;2022-09-03T01:00:06;7.63;;;6.05;;
22152;SDS011;11242;50.536;12.688;2022-09-03T01:02:46;7.53;;;5.55;;
22152;SDS011;11242;50.536;12.688;2022-09-03T01:09:11;6.65;;;5.93;;
22152;SDS011;11242;50.536;12.688;2022-09-03T01:14:20;11.68;;;6.22;;
22152;SDS011;11242;50.536;12.688;2022-09-03T01:17:12;6.75;;;6.10;;
22152;SDS011;11242;50.536;12.688;2022-09-03T01:20:02;6.82;;;6.05;;
22152;SDS011;11242;50.536;12.688;2022-09-03T01:28:28;7.20;;;5.93;;
22152;SDS011;11242;50.536;12.688;2022-09-03T01:40:02;6.43;;;5.90;;
22152;SDS011;11242;50.536;12.688;2022-09-03T01:42:59;6.72;;;6.00;;
22152;SDS011;11242;50.536;12.688;2022-09-03T01:45:43;8.90;;;5.80;;
22152;SDS011;11242;50.536;12.688;2022-09-03T01:51:01;6.65;;;5.95;;
22152;SDS011;11242;50.536;12.688;2022-09-03T02:02:09;8.38;;;6.75;;
22152;SDS011;11242;50.536;12.688;2022-09-03T02:07:35;6.93;;;6.32;;
22152;SDS011;11242;50.536;12.688;2022-09-03T02:10:37;8.45;;;6.10;;
22152;SDS011;11242;50.536;12.688;2022-09-03T02:13:19;8.73;;;6.75;;
22152;SDS011;11242;50.536;12.688;2022-09-03T02:15:52;6.47;;;5.82;;
22152;SDS011;11242;50.536;12.688;2022-09-03T02:18:30;7.33;;;6.57;;
22152;SDS011;11242;50.536;12.688;2022-09-03T02:21:05;6.88;;;6.25;;
22152;SDS011;11242;50.536;12.688;2022-09-03T02:23:31;6.90;;;6.18;;
22152;SDS011;11242;50.536;12.688;2022-09-03T02:25:59;7.15;;;6.45;;
22152;SDS011;11242;50.536;12.688;2022-09-03T02:28:27;7.10;;;6.28;;
22152;SDS011;11242;50.536;12.688;2022-09-03T02:30:54;7.88;;;6.57;;
22152;SDS011;11242;50.536;12.688;2022-09-03T02:33:20;7.30;;;6.60;;
22152;SDS011;11242;50.536;12.688;2022-09-03T02:35:46;7.97;;;6.75;;
22152;SDS011;11242;50.536;12.688;2022-09-03T02:38:15;7.97;;;6.70;;
22152;SDS011;11242;50.536;12.688;2022-09-03T02:40:43;7.32;;;6.63;;
22152;SDS011;11242;50.536;12.688;2022-09-03T02:43:11;6.88;;;6.28;;
22152;SDS011;11242;50.536;12.688;2022-09-03T02:45:46;7.30;;;6.63;;
22152;SDS011;11242;50.536;12.688;2022-09-03T02:48:15;8.30;;;7.32;;
22152;SDS011;11242;50.536;12.688;2022-09-03T02:50:46;8.20;;;6.70;;
22152;SDS011;11242;50.536;12.688;2022-09-03T02:53:12;11.40;;;7.00;;
22152;SDS011;11242;50.536;12.688;2022-09-03T02:55:38;7.03;;;6.43;;
22152;SDS011;11242;50.536;12.688;2022-09-03T02:58:03;10.35;;;7.13;;
22152;SDS011;11242;50.536;12.688;2022-09-03T03:00:30;9.13;;;6.80;;
22152;SDS011;11242;50.536;12.688;2022-09-03T03:02:57;8.98;;;6.82;;
22152;SDS011;11242;50.536;12.688;2022-09-03T03:05:25;7.95;;;7.00;;
22152;SDS011;11242;50.536;12.688;2022-09-03T03:07:59;7.60;;;6.90;;
22152;SDS011;11242;50.536;12.688;2022-09-03T03:10:25;9.38;;;7.05;;
22152;SDS011;11242;50.536;12.688;2022-09-03T03:12:50;7.97;;;7.18;;
22152;SDS011;11242;50.536;12.688;2022-09-03T03:15:16;7.75;;;7.03;;
22152;SDS011;11242;50.536;12.688;2022-09-03T03:17:41;8.73;;;7.40;;
22152;SDS011;11242;50.536;12.688;2022-09-03T03:20:07;8.40;;;7.18;;
22152;SDS011;11242;50.536;12.688;2022-09-03T03:22:33;8.73;;;7.55;;
22152;SDS011;11242;50.536;12.688;2022-09-03T03:24:59;7.90;;;7.10;;
22152;SDS011;11242;50.536;12.688;2022-09-03T03:27:25;8.88;;;7.97;;
22152;SDS011;11242;50.536;12.688;2022-09-03T03:29:51;10.23;;;7.95;;
22152;SDS011;11242;50.536;12.688;2022-09-03T03:32:18;12.68;;;8.32;;
22152;SDS011;11242;50.536;12.688;2022-09-03T03:34:44;11.80;;;8.30;;
22152;SDS011;11242;50.536;12.688;2022-09-03T03:37:09;9.20;;;8.30;;
22152;SDS011;11242;50.536;12.688;2022-09-03T03:39:35;9.60;;;8.60;;
22152;SDS011;11242;50.536;12.688;2022-09-03T03:42:00;8.05;;;7.25;;
22152;SDS011;11242;50.536;12.688;2022-09-03T03:44:26;9.30;;;8.50;;
22152;SDS011;11242;50.536;12.688;2022-09-03T03:46:53;9.23;;;8.02;;
22152;SDS011;11242;50.536;12.688;2022-09-03T03:49:19;9.85;;;8.25;;
22152;SDS011;11242;50.536;12.688;2022-09-03T03:51:44;10.93;;;7.97;;
22152;SDS011;11242;50.536;12.688;2022-09-03T03:54:10;9.95;;;8.02;;
22152;SDS011;11242;50.536;12.688;2022-09-03T03:56:35;10.50;;;7.93;;
22152;SDS011;11242;50.536;12.688;2022-09-03T03:59:01;9.57;;;8.30;;
22152;SDS011;11242;50.536;12.688;2022-09-03T04:01:28;9.27;;;8.38;;
22152;SDS011;11242;50.536;12.688;2022-09-03T04:03:55;8.57;;;7.68;;
22152;SDS011;11242;50.536;12.688;2022-09-03T04:06:21;9.75;;;8.32;;
22152;SDS011;11242;50.536;12.688;2022-09-03T04:08:47;9.25;;;8.35;;
22152;SDS011;11242;50.536;12.688;2022-09-03T04:11:15;9.00;;;8.10;;
22152;SDS011;11242;50.536;12.688;2022-09-03T04:13:43;9.05;;;7.65;;
22152;SDS011;11242;50.536;12.688;2022-09-03T04:16:10;9.27;;;8.43;;
22152;SDS011;11242;50.536;12.688;2022-09-03T04:18:40;9.68;;;8.52;;
22152;SDS011;11242;50.536;12.688;2022-09-03T04:21:07;10.30;;;9.20;;
22152;SDS011;11242;50.536;12.688;2022-09-03T04:23:35;10.90;;;8.02;;
22152;SDS011;11242;50.536;12.688;2022-09-03T04:26:03;11.02;;;7.78;;
22152;SDS011;11242;50.536;12.688;2022-09-03T04:28:30;8.70;;;7.90;;
22152;SDS011;11242;50.536;12.688;2022-09-03T04:31:01;9.75;;;8.70;;
22152;SDS011;11242;50.536;12.688;2022-09-03T04:33:28;10.27;;;8.70;;
22152;SDS011;11242;50.536;12.688;2022-09-03T04:36:11;9.52;;;8.63;;
22152;SDS011;11242;50.536;12.688;2022-09-03T04:38:42;10.07;;;8.77;;
22152;SDS011;11242;50.536;12.688;2022-09-03T04:41:10;11.75;;;8.15;;
22152;SDS011;11242;50.536;12.688;2022-09-03T04:43:38;11.40;;;8.20;;
22152;SDS011;11242;50.536;12.688;2022-09-03T04:46:06;8.45;;;7.60;;
22152;SDS011;11242;50.536;12.688;2022-09-03T04:48:32;9.40;;;7.72;;
22152;SDS011;11242;50.536;12.688;2022-09-03T04:51:03;9.40;;;7.55;;
22152;SDS011;11242;50.536;12.688;2022-09-03T04:53:31;8.43;;;7.47;;
22152;SDS011;11242;50.536;12.688;2022-09-03T04:56:01;8.55;;;7.32;;
22152;SDS011;11242;50.536;12.688;2022-09-03T04:58:28;8.25;;;7.38;;
22152;SDS011;11242;50.536;12.688;2022-09-03T05:00:53;9.88;;;6.82;;
22152;SDS011;11242;50.536;12.688;2022-09-03T05:03:19;7.63;;;6.93;;
22152;SDS011;11242;50.536;12.688;2022-09-03T05:05:55;7.40;;;6.70;;
22152;SDS011;11242;50.536;12.688;2022-09-03T05:08:21;7.18;;;6.50;;
22152;SDS011;11242;50.536;12.688;2022-09-03T05:10:48;7.70;;;6.60;;
22152;SDS011;11242;50.536;12.688;2022-09-03T05:13:13;12.77;;;9.18;;
22152;SDS011;11242;50.536;12.688;2022-09-03T05:15:39;22.10;;;16.52;;
22152;SDS011;11242;50.536;12.688;2022-09-03T05:18:09;27.05;;;21.40;;
22152;SDS011;11242;50.536;12.688;2022-09-03T05:20:34;25.98;;;19.60;;
22152;SDS011;11242;50.536;12.688;2022-09-03T05:23:00;12.93;;;9.98;;
22152;SDS011;11242;50.536;12.688;2022-09-03T05:25:29;20.80;;;15.48;;
22152;SDS011;11242;50.536;12.688;2022-09-03T05:27:58;24.30;;;17.95;;
22152;SDS011;11242;50.536;12.688;2022-09-03T05:30:24;32.55;;;24.73;;
22152;SDS011;11242;50.536;12.688;2022-09-03T05:32:50;33.25;;;27.58;;
22152;SDS011;11242;50.536;12.688;2022-09-03T05:35:16;34.67;;;27.88;;
22152;SDS011;11242;50.536;12.688;2022-09-03T05:37:42;35.80;;;30.17;;
22152;SDS011;11242;50.536;12.688;2022-09-03T05:40:08;33.85;;;26.95;;
22152;SDS011;11242;50.536;12.688;2022-09-03T05:42:37;19.65;;;15.05;;
22152;SDS011;11242;50.536;12.688;2022-09-03T05:45:06;22.70;;;18.20;;
22152;SDS011;11242;50.536;12.688;2022-09-03T05:47:34;19.43;;;15.27;;
22152;SDS011;11242;50.536;12.688;2022-09-03T05:50:01;16.35;;;13.25;;
22152;SDS011;11242;50.536;12.688;2022-09-03T05:52:27;8.15;;;7.15;;
22152;SDS011;11242;50.536;12.688;2022-09-03T05:54:53;7.03;;;6.32;;
22152;SDS011;11242;50.536;12.688;2022-09-03T05:57:18;9.27;;;7.82;;
22152;SDS011;11242;50.536;12.688;2022-09-03T05:59:44;8.95;;;7.68;;
22152;SDS011;11242;50.536;12.688;2022-09-03T06:02:09;7.35;;;5.88;;
22152;SDS011;11242;50.536;12.688;2022-09-03T06:04:35;5.57;;;4.97;;
22152;SDS011;11242;50.536;12.688;2022-09-03T06:07:00;6.15;;;4.28;;
22152;SDS011;11242;50.536;12.688;2022-09-03T06:09:26;5.38;;;4.00;;
22152;SDS011;11242;50.536;12.688;2022-09-03T06:11:51;4.32;;;3.92;;
22152;SDS011;11242;50.536;12.688;2022-09-03T06:14:18;7.32;;;6.57;;
22152;SDS011;11242;50.536;12.688;2022-09-03T06:16:45;7.07;;;4.90;;
22152;SDS011;11242;50.536;12.688;2022-09-03T06:19:13;6.88;;;5.28;;
22152;SDS011;11242;50.536;12.688;2022-09-03T06:21:40;6.05;;;5.10;;
22152;SDS011;11242;50.536;12.688;2022-09-03T06:24:15;6.50;;;4.38;;
22152;SDS011;11242;50.536;12.688;2022-09-03T06:26:46;4.88;;;3.90;;
22152;SDS011;11242;50.536;12.688;2022-09-03T06:29:12;6.07;;;4.40;;
22152;SDS011;11242;50.536;12.688;2022-09-03T06:31:38;6.40;;;4.45;;
22152;SDS011;11242;50.536;12.688;2022-09-03T06:34:03;6.55;;;4.47;;
22152;SDS011;11242;50.536;12.688;2022-09-03T06:36:30;7.63;;;4.03;;
22152;SDS011;11242;50.536;12.688;2022-09-03T06:38:56;3.97;;;3.13;;
22152;SDS011;11242;50.536;12.688;2022-09-03T06:41:26;3.65;;;3.25;;
22152;SDS011;11242;50.536;12.688;2022-09-03T06:43:57;4.43;;;3.00;;
22152;SDS011;11242;50.536;12.688;2022-09-03T06:46:27;3.72;;;2.20;;
22152;SDS011;11242;50.536;12.688;2022-09-03T06:48:53;4.22;;;2.72;;
22152;SDS011;11242;50.536;12.688;2022-09-03T06:51:20;2.58;;;2.05;;
22152;SDS011;11242;50.536;12.688;2022-09-03T06:53:48;2.95;;;1.90;;
22152;SDS011;11242;50.536;12.688;2022-09-03T06:56:17;2.72;;;2.00;;
22152;SDS011;11242;50.536;12.688;2022-09-03T06:58:50;2.90;;;1.98;;
22152;SDS011;11242;50.536;12.688;2022-09-03T07:01:17;3.30;;;1.90;;
22152;SDS011;11242;50.536;12.688;2022-09-03T07:03:45;2.03;;;1.63;;
22152;SDS011;11242;50.536;12.688;2022-09-03T07:06:16;3.60;;;2.00;;
22152;SDS011;11242;50.536;12.688;2022-09-03T07:08:43;2.20;;;2.00;;
22152;SDS011;11242;50.536;12.688;2022-09-03T07:11:14;3.03;;;1.70;;
22152;SDS011;11242;50.536;12.688;2022-09-03T07:13:42;2.22;;;1.83;;
22152;SDS011;11242;50.536;12.688;2022-09-03T07:16:14;2.58;;;2.08;;
22152;SDS011;11242;50.536;12.688;2022-09-03T07:18:42;3.85;;;2.35;;
22152;SDS011;11242;50.536;12.688;2022-09-03T07:21:09;5.07;;;2.20;;
22152;SDS011;11242;50.536;12.688;2022-09-03T07:23:37;5.15;;;2.35;;
22152;SDS011;11242;50.536;12.688;2022-09-03T07:26:06;3.05;;;2.15;;
22152;SDS011;11242;50.536;12.688;2022-09-03T07:28:35;2.92;;;2.33;;
22152;SDS011;11242;50.536;12.688;2022-09-03T07:31:12;5.13;;;2.40;;
22152;SDS011;11242;50.536;12.688;2022-09-03T07:33:50;4.55;;;2.45;;
22152;SDS011;11242;50.536;12.688;2022-09-03T07:36:22;2.78;;;2.20;;
22152;SDS011;11242;50.536;12.688;2022-09-03T07:38:50;3.55;;;2.78;;
22152;SDS011;11242;50.536;12.688;2022-09-03T07:41:22;9.82;;;7.50;;
22152;SDS011;11242;50.536;12.688;2022-09-03T07:43:49;14.55;;;9.70;;
22152;SDS011;11242;50.536;12.688;2022-09-03T07:46:19;6.97;;;6.28;;
22152;SDS011;11242;50.536;12.688;2022-09-03T07:48:47;2.85;;;2.35;;
22152;SDS011;11242;50.536;12.688;2022-09-03T07:51:17;3.22;;;2.42;;
22152;SDS011;11242;50.536;12.688;2022-09-03T07:53:45;3.38;;;2.38;;
22152;SDS011;11242;50.536;12.688;2022-09-03T07:56:11;4.72;;;2.70;;
22152;SDS011;11242;50.536;12.688;2022-09-03T07:58:38;5.72;;;3.47;;
22152;SDS011;11242;50.536;12.688;2022-09-03T08:01:12;3.22;;;2.35;;
22152;SDS011;11242;50.536;12.688;2022-09-03T08:03:44;2.40;;;2.20;;
22152;SDS011;11242;50.536;12.688;2022-09-03T08:06:11;4.30;;;2.75;;
22152;SDS011;11242;50.536;12.688;2022-09-03T08:08:37;4.32;;;2.47;;
22152;SDS011;11242;50.536;12.688;2022-09-03T08:11:14;2.90;;;1.70;;
22152;SDS011;11242;50.536;12.688;2022-09-03T08:13:42;2.40;;;1.70;;
22152;SDS011;11242;50.536;12.688;2022-09-03T08:16:10;2.53;;;1.70;;
22152;SDS011;11242;50.536;12.688;2022-09-03T08:18:36;2.67;;;1.70;;
22152;SDS011;11242;50.536;12.688;2022-09-03T08:21:10;3.63;;;1.77;;
22152;SDS011;11242;50.536;12.688;2022-09-03T08:23:39;2.20;;;1.70;;
22152;SDS011;11242;50.536;12.688;2022-09-03T08:26:07;1.40;;;1.30;;
22152;SDS011;11242;50.536;12.688;2022-09-03T08:28:33;2.25;;;1.90;;
22152;SDS011;11242;50.536;12.688;2022-09-03T08:33:31;2.63;;;1.45;;
22152;SDS011;11242;50.536;12.688;2022-09-03T08:36:07;4.30;;;1.67;;
22152;SDS011;11242;50.536;12.688;2022-09-03T08:38:37;1.60;;;1.50;;
22152;SDS011;11242;50.536;12.688;2022-09-03T08:41:06;2.30;;;1.83;;
22152;SDS011;11242;50.536;12.688;2022-09-03T08:43:50;1.63;;;1.50;;
22152;SDS011;11242;50.536;12.688;2022-09-03T08:46:42;2.88;;;1.73;;
22152;SDS011;11242;50.536;12.688;2022-09-03T08:52:21;1.88;;;1.77;;
22152;SDS011;11242;50.536;12.688;2022-09-03T08:54:50;2.80;;;1.40;;
22152;SDS011;11242;50.536;12.688;2022-09-03T08:57:21;4.85;;;1.90;;
22152;SDS011;11242;50.536;12.688;2022-09-03T08:59:50;2.47;;;2.20;;
22152;SDS011;11242;50.536;12.688;2022-09-03T09:05:11;2.28;;;1.77;;
22152;SDS011;11242;50.536;12.688;2022-09-03T09:07:52;1.90;;;1.80;;
22152;SDS011;11242;50.536;12.688;2022-09-03T09:10:43;4.90;;;1.77;;
22152;SDS011;11242;50.536;12.688;2022-09-03T09:13:15;2.25;;;1.42;;
22152;SDS011;11242;50.536;12.688;2022-09-03T09:21:13;2.20;;;1.50;;
22152;SDS011;11242;50.536;12.688;2022-09-03T09:23:52;2.47;;;1.73;;
22152;SDS011;11242;50.536;12.688;2022-09-03T09:26:25;2.22;;;1.58;;
22152;SDS011;11242;50.536;12.688;2022-09-03T09:28:54;1.85;;;1.70;;
22152;SDS011;11242;50.536;12.688;2022-09-03T09:31:25;1.77;;;1.60;;
22152;SDS011;11242;50.536;12.688;2022-09-03T09:33:54;3.80;;;1.63;;
22152;SDS011;11242;50.536;12.688;2022-09-03T09:36:25;2.35;;;1.60;;
22152;SDS011;11242;50.536;12.688;2022-09-03T09:38:52;2.70;;;1.70;;
22152;SDS011;11242;50.536;12.688;2022-09-03T09:41:19;2.03;;;1.83;;
22152;SDS011;11242;50.536;12.688;2022-09-03T09:43:47;2.92;;;1.48;;
22152;SDS011;11242;50.536;12.688;2022-09-03T09:46:26;3.55;;;1.73;;
22152;SDS011;11242;50.536;12.688;2022-09-03T09:48:59;2.05;;;1.85;;
22152;SDS011;11242;50.536;12.688;2022-09-03T09:51:29;2.95;;;1.95;;
22152;SDS011;11242;50.536;12.688;2022-09-03T09:54:14;4.50;;;1.52;;
22152;SDS011;11242;50.536;12.688;2022-09-03T09:56:46;2.22;;;1.50;;
22152;SDS011;11242;50.536;12.688;2022-09-03T09:59:23;2.45;;;1.42;;
22152;SDS011;11242;50.536;12.688;2022-09-03T10:01:49;1.52;;;1.20;;
22152;SDS011;11242;50.536;12.688;2022-09-03T10:04:21;2.78;;;1.35;;
22152;SDS011;11242;50.536;12.688;2022-09-03T10:06:54;1.75;;;1.30;;
22152;SDS011;11242;50.536;12.688;2022-09-03T10:09:25;2.78;;;1.10;;
22152;SDS011;11242;50.536;12.688;2022-09-03T10:14:36;4.75;;;1.88;;
22152;SDS011;11242;50.536;12.688;2022-09-03T10:17:21;2.10;;;1.50;;
22152;SDS011;11242;50.536;12.688;2022-09-03T10:20:14;1.35;;;1.25;;
22152;SDS011;11242;50.536;12.688;2022-09-03T10:25:54;1.60;;;1.30;;
22152;SDS011;11242;50.536;12.688;2022-09-03T10:28:31;2.08;;;1.38;;
22152;SDS011;11242;50.536;12.688;2022-09-03T10:31:10;1.77;;;1.50;;
22152;SDS011;11242;50.536;12.688;2022-09-03T10:36:47;2.65;;;1.50;;
22152;SDS011;11242;50.536;12.688;2022-09-03T10:42:19;1.83;;;1.40;;
22152;SDS011;11242;50.536;12.688;2022-09-03T10:48:09;3.50;;;1.40;;
22152;SDS011;11242;50.536;12.688;2022-09-03T10:56:23;1.98;;;1.70;;
22152;SDS011;11242;50.536;12.688;2022-09-03T11:01:56;2.00;;;1.60;;
22152;SDS011;11242;50.536;12.688;2022-09-03T11:07:08;1.42;;;1.33;;
22152;SDS011;11242;50.536;12.688;2022-09-03T11:09:42;3.58;;;1.50;;
22152;SDS011;11242;50.536;12.688;2022-09-03T11:12:23;2.30;;;1.77;;
22152;SDS011;11242;50.536;12.688;2022-09-03T11:14:56;4.15;;;1.63;;
22152;SDS011;11242;50.536;12.688;2022-09-03T11:17:47;2.47;;;1.67;;
22152;SDS011;11242;50.536;12.688;2022-09-03T11:20:17;3.20;;;1.60;;
22152;SDS011;11242;50.536;12.688;2022-09-03T11:22:45;1.67;;;1.33;;
22152;SDS011;11242;50.536;12.688;2022-09-03T11:25:14;1.60;;;1.50;;
22152;SDS011;11242;50.536;12.688;2022-09-03T11:27:58;2.10;;;1.55;;
22152;SDS011;11242;50.536;12.688;2022-09-03T11:30:55;3.20;;;1.35;;
22152;SDS011;11242;50.536;12.688;2022-09-03T11:33:39;3.13;;;1.65;;
22152;SDS011;11242;50.536;12.688;2022-09-03T11:36:09;2.53;;;1.23;;
22152;SDS011;11242;50.536;12.688;2022-09-03T11:38:35;1.70;;;1.60;;
22152;SDS011;11242;50.536;12.688;2022-09-03T11:41:10;1.48;;;1.33;;
22152;SDS011;11242;50.536;12.688;2022-09-03T11:43:38;1.75;;;1.45;;
22152;SDS011;11242;50.536;12.688;2022-09-03T11:48:46;2.72;;;1.63;;
22152;SDS011;11242;50.536;12.688;2022-09-03T11:54:02;1.58;;;1.40;;
22152;SDS011;11242;50.536;12.688;2022-09-03T11:56:37;3.58;;;1.85;;
22152;SDS011;11242;50.536;12.688;2022-09-03T11:59:13;1.83;;;1.73;;
22152;SDS011;11242;50.536;12.688;2022-09-03T12:02:00;3.08;;;1.88;;
22152;SDS011;11242;50.536;12.688;2022-09-03T12:04:34;1.90;;;1.80;;
22152;SDS011;11242;50.536;12.688;2022-09-03T12:10:32;1.92;;;1.75;;
22152;SDS011;11242;50.536;12.688;2022-09-03T12:13:46;2.03;;;1.48;;
22152;SDS011;11242;50.536;12.688;2022-09-03T12:19:15;4.20;;;1.60;;
22152;SDS011;11242;50.536;12.688;2022-09-03T12:21:49;4.05;;;1.60;;
22152;SDS011;11242;50.536;12.688;2022-09-03T12:24:16;2.50;;;1.85;;
22152;SDS011;11242;50.536;12.688;2022-09-03T12:26:43;1.88;;;1.40;;
22152;SDS011;11242;50.536;12.688;2022-09-03T12:29:19;2.97;;;1.95;;
22152;SDS011;11242;50.536;12.688;2022-09-03T12:31:48;1.98;;;1.70;;
22152;SDS011;11242;50.536;12.688;2022-09-03T12:34:16;3.20;;;1.60;;
22152;SDS011;11242;50.536;12.688;2022-09-03T12:36:44;2.75;;;1.75;;
22152;SDS011;11242;50.536;12.688;2022-09-03T12:39:19;1.80;;;1.70;;
22152;SDS011;11242;50.536;12.688;2022-09-03T12:41:53;5.47;;;1.80;;
22152;SDS011;11242;50.536;12.688;2022-09-03T12:44:29;3.28;;;1.75;;
22152;SDS011;11242;50.536;12.688;2022-09-03T12:47:04;2.28;;;1.95;;
22152;SDS011;11242;50.536;12.688;2022-09-03T12:49:38;1.98;;;1.75;;
22152;SDS011;11242;50.536;12.688;2022-09-03T12:54:54;3.33;;;1.60;;
22152;SDS011;11242;50.536;12.688;2022-09-03T12:57:40;1.50;;;1.40;;
22152;SDS011;11242;50.536;12.688;2022-09-03T13:00:14;2.00;;;1.40;;
22152;SDS011;11242;50.536;12.688;2022-09-03T13:02:50;2.75;;;1.50;;
22152;SDS011;11242;50.536;12.688;2022-09-03T13:05:29;2.13;;;1.30;;
22152;SDS011;11242;50.536;12.688;2022-09-03T13:07:58;3.83;;;1.30;;
22152;SDS011;11242;50.536;12.688;2022-09-03T13:10:30;1.52;;;1.42;;
22152;SDS011;11242;50.536;12.688;2022-09-03T13:15:39;2.17;;;1.70;;
22152;SDS011;11242;50.536;12.688;2022-09-03T13:18:15;3.80;;;1.63;;
22152;SDS011;11242;50.536;12.688;2022-09-03T13:23:39;2.05;;;1.58;;
22152;SDS011;11242;50.536;12.688;2022-09-03T13:26:50;1.95;;;1.80;;
22152;SDS011;11242;50.536;12.688;2022-09-03T13:29:23;1.63;;;1.52;;
22152;SDS011;11242;50.536;12.688;2022-09-03T13:35:01;1.92;;;1.70;;
22152;SDS011;11242;50.536;12.688;2022-09-03T13:37:40;2.60;;;1.50;;
22152;SDS011;11242;50.536;12.688;2022-09-03T13:40:20;2.30;;;1.70;;
22152;SDS011;11242;50.536;12.688;2022-09-03T13:46:01;2.38;;;1.50;;
22152;SDS011;11242;50.536;12.688;2022-09-03T13:48:39;3.15;;;1.70;;
22152;SDS011;11242;50.536;12.688;2022-09-03T13:51:30;2.00;;;1.67;;
22152;SDS011;11242;50.536;12.688;2022-09-03T13:54:12;2.28;;;1.48;;
22152;SDS011;11242;50.536;12.688;2022-09-03T13:57:01;3.80;;;1.70;;
22152;SDS011;11242;50.536;12.688;2022-09-03T13:59:32;1.70;;;1.60;;
22152;SDS011;11242;50.536;12.688;2022-09-03T14:02:22;1.70;;;1.60;;
22152;SDS011;11242;50.536;12.688;2022-09-03T14:10:18;2.65;;;1.77;;
22152;SDS011;11242;50.536;12.688;2022-09-03T14:12:59;1.70;;;1.60;;
22152;SDS011;11242;50.536;12.688;2022-09-03T14:21:16;3.83;;;1.58;;
22152;SDS011;11242;50.536;12.688;2022-09-03T14:24:00;1.85;;;1.75;;
22152;SDS011;11242;50.536;12.688;2022-09-03T14:26:30;2.33;;;1.70;;
22152;SDS011;11242;50.536;12.688;2022-09-03T14:40:39;3.75;;;1.85;;
22152;SDS011;11242;50.536;12.688;2022-09-03T14:43:14;3.67;;;2.10;;
22152;SDS011;11242;50.536;12.688;2022-09-03T14:45:57;2.58;;;1.70;;
22152;SDS011;11242;50.536;12.688;2022-09-03T14:51:46;1.95;;;1.60;;
22152;SDS011;11242;50.536;12.688;2022-09-03T15:00:03;2.28;;;1.60;;
22152;SDS011;11242;50.536;12.688;2022-09-03T15:05:19;3.45;;;1.95;;
22152;SDS011;11242;50.536;12.688;2022-09-03T15:07:59;6.03;;;2.25;;
22152;SDS011;11242;50.536;12.688;2022-09-03T15:10:36;1.58;;;1.48;;
22152;SDS011;11242;50.536;12.688;2022-09-03T15:13:09;2.00;;;1.80;;
22152;SDS011;11242;50.536;12.688;2022-09-03T15:18:16;1.70;;;1.60;;
22152;SDS011;11242;50.536;12.688;2022-09-03T15:30:22;3.08;;;2.00;;
22152;SDS011;11242;50.536;12.688;2022-09-03T15:38:34;5.63;;;2.15;;
22152;SDS011;11242;50.536;12.688;2022-09-03T15:41:05;3.97;;;2.10;;
22152;SDS011;11242;50.536;12.688;2022-09-03T15:43:46;2.25;;;1.70;;
22152;SDS011;11242;50.536;12.688;2022-09-03T15:46:27;4.90;;;1.70;;
22152;SDS011;11242;50.536;12.688;2022-09-03T15:49:22;3.53;;;2.33;;
22152;SDS011;11242;50.536;12.688;2022-09-03T15:52:29;4.80;;;2.10;;
22152;SDS011;11242;50.536;12.688;2022-09-03T15:55:22;4.28;;;2.30;;
22152;SDS011;11242;50.536;12.688;2022-09-03T16:00:55;8.20;;;5.38;;
22152;SDS011;11242;50.536;12.688;2022-09-03T16:09:23;3.47;;;2.40;;
22152;SDS011;11242;50.536;12.688;2022-09-03T16:12:05;3.53;;;2.30;;
22152;SDS011;11242;50.536;12.688;2022-09-03T16:14:57;4.32;;;2.13;;
22152;SDS011;11242;50.536;12.688;2022-09-03T16:17:38;2.60;;;1.90;;
22152;SDS011;11242;50.536;12.688;2022-09-03T16:20:23;5.03;;;2.50;;
22152;SDS011;11242;50.536;12.688;2022-09-03T16:22:59;3.38;;;2.38;;
22152;SDS011;11242;50.536;12.688;2022-09-03T16:25:33;3.85;;;2.20;;
22152;SDS011;11242;50.536;12.688;2022-09-03T16:28:14;5.78;;;2.50;;
22152;SDS011;11242;50.536;12.688;2022-09-03T16:31:09;4.38;;;2.50;;
22152;SDS011;11242;50.536;12.688;2022-09-03T16:39:24;3.42;;;3.13;;
22152;SDS011;11242;50.536;12.688;2022-09-03T16:45:00;3.78;;;2.90;;
22152;SDS011;11242;50.536;12.688;2022-09-03T16:50:48;3.53;;;2.95;;
22152;SDS011;11242;50.536;12.688;2022-09-03T16:56:24;2.65;;;2.40;;
22152;SDS011;11242;50.536;12.688;2022-09-03T16:59:21;6.05;;;2.63;;
22152;SDS011;11242;50.536;12.688;2022-09-03T17:02:32;4.28;;;2.70;;
22152;SDS011;11242;50.536;12.688;2022-09-03T17:08:02;3.30;;;2.50;;
22152;SDS011;11242;50.536;12.688;2022-09-03T17:10:38;4.07;;;2.70;;
22152;SDS011;11242;50.536;12.688;2022-09-03T17:13:41;2.92;;;2.72;;
22152;SDS011;11242;50.536;12.688;2022-09-03T17:16:34;4.25;;;2.70;;
22152;SDS011;11242;50.536;12.688;2022-09-03T17:22:07;3.45;;;2.80;;
22152;SDS011;11242;50.536;12.688;2022-09-03T17:24:54;5.20;;;2.40;;
22152;SDS011;11242;50.536;12.688;2022-09-03T17:27:47;3.38;;;2.22;;
22152;SDS011;11242;50.536;12.688;2022-09-03T17:30:27;3.20;;;2.72;;
22152;SDS011;11242;50.536;12.688;2022-09-03T17:33:20;5.18;;;2.78;;
22152;SDS011;11242;50.536;12.688;2022-09-03T17:36:10;5.03;;;2.95;;
22152;SDS011;11242;50.536;12.688;2022-09-03T17:44:46;5.57;;;3.58;;
22152;SDS011;11242;50.536;12.688;2022-09-03T17:53:23;5.35;;;3.30;;
22152;SDS011;11242;50.536;12.688;2022-09-03T17:55:59;5.53;;;3.15;;
22152;SDS011;11242;50.536;12.688;2022-09-03T17:58:44;5.13;;;3.08;;
22152;SDS011;11242;50.536;12.688;2022-09-03T18:01:22;4.78;;;3.05;;
22152;SDS011;11242;50.536;12.688;2022-09-03T18:03:58;6.88;;;3.20;;
22152;SDS011;11242;50.536;12.688;2022-09-03T18:11:38;4.75;;;4.13;;
22152;SDS011;11242;50.536;12.688;2022-09-03T18:14:08;4.35;;;3.65;;
22152;SDS011;11242;50.536;12.688;2022-09-03T18:16:53;7.28;;;3.20;;
22152;SDS011;11242;50.536;12.688;2022-09-03T18:22:28;3.55;;;3.22;;
22152;SDS011;11242;50.536;12.688;2022-09-03T18:25:18;6.20;;;3.05;;
22152;SDS011;11242;50.536;12.688;2022-09-03T18:28:07;4.38;;;3.60;;
22152;SDS011;11242;50.536;12.688;2022-09-03T18:30:55;8.60;;;3.35;;
22152;SDS011;11242;50.536;12.688;2022-09-03T18:33:39;5.03;;;3.75;;
22152;SDS011;11242;50.536;12.688;2022-09-03T18:36:23;6.90;;;3.90;;
22152;SDS011;11242;50.536;12.688;2022-09-03T18:39:14;4.43;;;4.00;;
22152;SDS011;11242;50.536;12.688;2022-09-03T18:42:08;5.75;;;5.15;;